createdAt,value
2018-06-28T00:00:52.721Z,3.00
2018-06-28T00:03:21.185Z,2.40
2018-06-28T00:05:50.014Z,1.65
2018-06-28T00:08:18.451Z,2.30
2018-06-28T00:10:46.978Z,1.97
2018-06-28T00:13:15.538Z,2.90
2018-06-28T00:15:44.292Z,1.60
2018-06-28T00:18:12.775Z,4.37
2018-06-28T00:20:41.279Z,2.70
2018-06-28T00:23:09.939Z,2.70
2018-06-28T00:25:38.634Z,1.50
2018-06-28T00:28:07.126Z,2.87
2018-06-28T00:30:35.612Z,2.02
2018-06-28T00:33:08.190Z,2.67
2018-06-28T00:35:36.675Z,1.87
2018-06-28T00:38:05.259Z,3.37
2018-06-28T00:40:34.021Z,2.60
2018-06-28T00:43:02.526Z,2.63
2018-06-28T00:45:31.012Z,2.30
2018-06-28T00:47:59.515Z,3.03
2018-06-28T00:50:27.941Z,2.55
2018-06-28T00:52:56.591Z,1.60
2018-06-28T00:55:25.035Z,1.87
2018-06-28T00:57:53.566Z,1.43
2018-06-28T01:00:22.154Z,2.13
2018-06-28T01:02:50.667Z,1.42
2018-06-28T01:05:19.292Z,2.07
2018-06-28T01:07:47.847Z,1.70
2018-06-28T01:10:16.411Z,2.67
2018-06-28T01:12:44.935Z,1.80
2018-06-28T01:15:13.364Z,2.17
2018-06-28T01:17:42.199Z,1.50
2018-06-28T01:20:10.819Z,1.73
2018-06-28T01:22:39.449Z,1.47
2018-06-28T01:25:07.991Z,5.43
2018-06-28T01:27:36.523Z,2.77
2018-06-28T01:30:06.190Z,2.33
2018-06-28T01:32:34.990Z,1.20
2018-06-28T01:35:03.531Z,2.10
2018-06-28T01:37:32.056Z,3.67
2018-06-28T01:40:00.682Z,5.63
2018-06-28T01:42:41.124Z,1.93
2018-06-28T01:45:09.567Z,3.13
2018-06-28T01:47:38.234Z,2.20
2018-06-28T01:50:06.755Z,1.67
2018-06-28T01:52:35.414Z,1.47
2018-06-28T02:02:43.187Z,1.60
2018-06-28T02:05:11.655Z,1.73
2018-06-28T02:07:40.097Z,3.87
2018-06-28T02:10:08.705Z,1.70
2018-06-28T02:12:37.498Z,1.50
2018-06-28T02:15:06.372Z,2.00
2018-06-28T02:17:34.809Z,1.73
2018-06-28T02:20:03.354Z,1.40
2018-06-28T02:22:31.911Z,1.40
2018-06-28T02:25:00.334Z,1.50
2018-06-28T02:27:28.987Z,1.60
2018-06-28T02:29:57.519Z,2.67
2018-06-28T02:32:25.987Z,1.50
2018-06-28T02:34:54.550Z,1.50
2018-06-28T02:37:23.430Z,2.67
2018-06-28T02:39:52.000Z,1.40
2018-06-28T02:42:20.466Z,2.20
2018-06-28T02:44:48.992Z,2.13
2018-06-28T02:47:17.719Z,1.60
2018-06-28T02:49:46.199Z,2.63
2018-06-28T02:52:14.658Z,1.60
2018-06-28T02:54:44.221Z,3.50
2018-06-28T02:57:12.890Z,3.80
2018-06-28T02:59:41.519Z,1.30
2018-06-28T03:02:10.011Z,1.60
2018-06-28T03:04:39.063Z,1.60
2018-06-28T03:07:07.655Z,1.73
2018-06-28T03:09:36.098Z,3.70
2018-06-28T03:12:04.679Z,3.57
2018-06-28T03:14:33.167Z,2.23
2018-06-28T03:17:01.783Z,1.80
2018-06-28T03:19:30.324Z,3.17
2018-06-28T03:21:58.816Z,1.50
2018-06-28T03:24:27.467Z,3.50
2018-06-28T03:26:56.023Z,2.37
2018-06-28T03:29:24.587Z,1.80
2018-06-28T03:31:53.413Z,3.07
2018-06-28T03:34:22.098Z,2.90
2018-06-28T03:36:50.746Z,3.10
2018-06-28T03:39:19.431Z,3.63
2018-06-28T03:41:47.939Z,3.40
2018-06-28T03:44:16.410Z,3.93
2018-06-28T03:46:45.116Z,3.03
2018-06-28T03:49:13.683Z,4.60
2018-06-28T03:51:42.186Z,5.77
2018-06-28T03:54:10.686Z,4.60
2018-06-28T03:56:39.519Z,2.30
2018-06-28T03:59:08.332Z,3.70
2018-06-28T04:01:36.838Z,7.60
2018-06-28T04:04:05.548Z,4.57
2018-06-28T04:06:34.239Z,5.30
2018-06-28T04:09:02.885Z,4.13
2018-06-28T04:11:31.408Z,4.10
2018-06-28T04:13:59.862Z,5.60
2018-06-28T04:16:28.409Z,3.80
2018-06-28T04:18:56.930Z,3.77
2018-06-28T04:21:25.544Z,5.00
2018-06-28T04:23:54.144Z,8.10
2018-06-28T04:26:22.875Z,3.90
2018-06-28T04:28:51.392Z,4.93
2018-06-28T04:31:20.168Z,4.30
2018-06-28T04:33:48.688Z,4.67
2018-06-28T04:36:17.238Z,6.07
2018-06-28T04:38:45.763Z,6.63
2018-06-28T04:41:14.303Z,5.43
2018-06-28T04:43:42.822Z,8.30
2018-06-28T04:46:11.265Z,5.67
2018-06-28T04:48:39.681Z,5.63
2018-06-28T04:51:08.188Z,4.40
2018-06-28T04:53:36.747Z,6.73
2018-06-28T04:56:05.531Z,5.87
2018-06-28T04:58:34.039Z,9.60
2018-06-28T05:01:02.543Z,6.57
2018-06-28T05:03:31.177Z,7.33
2018-06-28T05:05:59.730Z,10.57
2018-06-28T05:08:28.264Z,6.50
2018-06-28T05:10:56.783Z,7.93
2018-06-28T05:13:25.403Z,4.30
2018-06-28T05:15:53.984Z,7.50
2018-06-28T05:18:22.608Z,4.83
2018-06-28T05:20:51.103Z,6.87
2018-06-28T05:23:19.875Z,14.60
2018-06-28T05:25:48.372Z,4.30
2018-06-28T05:28:16.891Z,4.20
2018-06-28T05:30:49.326Z,4.73
2018-06-28T05:33:17.840Z,4.80
2018-06-28T05:35:46.397Z,8.27
2018-06-28T05:38:14.887Z,7.03
2018-06-28T05:40:43.494Z,4.27
2018-06-28T05:43:11.859Z,7.37
2018-06-28T05:45:40.526Z,4.97
2018-06-28T05:48:09.068Z,5.57
2018-06-28T05:50:37.800Z,4.80
2018-06-28T05:53:06.321Z,13.50
2018-06-28T05:55:35.303Z,11.40
2018-06-28T05:58:04.118Z,8.00
2018-06-28T06:00:32.714Z,16.93
2018-06-28T06:03:01.557Z,18.03
2018-06-28T06:05:30.091Z,9.77
2018-06-28T06:07:58.664Z,7.60
2018-06-28T06:10:27.251Z,12.33
2018-06-28T06:12:55.802Z,7.70
2018-06-28T06:15:24.353Z,10.40
2018-06-28T06:17:52.941Z,7.10
2018-06-28T06:20:21.519Z,11.93
2018-06-28T06:22:50.008Z,10.13
2018-06-28T06:25:18.501Z,10.33
2018-06-28T06:27:46.985Z,6.40
2018-06-28T06:30:15.583Z,8.00
2018-06-28T06:32:44.087Z,5.63
2018-06-28T06:35:12.610Z,9.10
2018-06-28T06:37:41.279Z,5.83
2018-06-28T06:40:09.764Z,7.20
2018-06-28T06:42:38.383Z,5.17
2018-06-28T06:45:07.692Z,4.03
2018-06-28T06:47:36.296Z,10.17
2018-06-28T06:50:05.071Z,8.70
2018-06-28T06:52:33.559Z,10.63
2018-06-28T06:55:02.096Z,4.70
2018-06-28T06:57:30.616Z,2.90
2018-06-28T06:59:59.070Z,3.87
2018-06-28T07:02:27.561Z,8.83
2018-06-28T07:04:56.015Z,9.07
2018-06-28T07:07:24.521Z,3.83
2018-06-28T07:09:53.029Z,3.30
2018-06-28T07:12:21.624Z,8.40
2018-06-28T07:14:50.384Z,7.03
2018-06-28T07:17:19.098Z,3.50
2018-06-28T07:19:47.936Z,3.67
2018-06-28T07:22:16.456Z,3.43
2018-06-28T07:24:44.936Z,3.00
2018-06-28T07:27:13.464Z,5.17
2018-06-28T07:29:42.204Z,4.78
2018-06-28T07:32:10.691Z,6.83
2018-06-28T07:34:39.179Z,7.57
2018-06-28T07:37:07.739Z,10.43
2018-06-28T07:39:36.208Z,12.67
2018-06-28T07:42:04.839Z,6.37
2018-06-28T07:44:33.390Z,3.92
2018-06-28T07:47:01.866Z,4.63
2018-06-28T07:49:30.331Z,6.00
2018-06-28T07:51:58.827Z,5.58
2018-06-28T07:54:28.013Z,4.12
2018-06-28T07:56:56.699Z,5.33
2018-06-28T07:59:25.276Z,3.83
2018-06-28T08:01:53.923Z,5.37
2018-06-28T08:04:22.500Z,2.90
2018-06-28T08:06:51.031Z,3.33
2018-06-28T08:09:19.514Z,2.70
2018-06-28T08:11:48.026Z,2.70
2018-06-28T08:14:16.536Z,3.25
2018-06-28T08:16:45.052Z,3.42
2018-06-28T08:19:13.596Z,4.33
2018-06-28T08:21:42.260Z,3.47
2018-06-28T08:24:10.727Z,3.17
2018-06-28T08:26:39.175Z,2.70
2018-06-28T08:29:07.727Z,8.30
2018-06-28T08:31:36.553Z,2.95
2018-06-28T08:34:05.292Z,3.42
2018-06-28T08:36:33.767Z,2.98
2018-06-28T08:39:02.239Z,4.92
2018-06-28T08:41:30.706Z,3.30
2018-06-28T08:43:59.154Z,5.55
2018-06-28T08:46:27.897Z,3.20
2018-06-28T08:48:56.625Z,2.80
2018-06-28T08:51:25.203Z,3.75
2018-06-28T08:53:53.723Z,4.75
2018-06-28T08:56:22.315Z,3.05
2018-06-28T08:58:50.788Z,3.90
2018-06-28T09:01:19.470Z,3.20
2018-06-28T09:03:47.927Z,2.92
2018-06-28T09:06:16.487Z,2.85
2018-06-28T09:08:45.034Z,2.90
2018-06-28T09:11:13.516Z,3.08
2018-06-28T09:13:41.984Z,2.42
2018-06-28T09:16:10.533Z,2.77
2018-06-28T09:18:43.365Z,2.35
2018-06-28T09:21:11.853Z,2.40
2018-06-28T09:23:40.310Z,2.60
2018-06-28T09:26:08.839Z,3.72
2018-06-28T09:28:37.540Z,5.42
2018-06-28T09:31:06.291Z,2.98
2018-06-28T09:33:34.751Z,2.50
2018-06-28T09:36:03.421Z,3.12
2018-06-28T09:38:31.971Z,2.90
2018-06-28T09:41:00.698Z,5.40
2018-06-28T09:43:29.191Z,2.55
2018-06-28T09:45:57.695Z,4.20
2018-06-28T09:48:26.226Z,2.17
2018-06-28T09:50:54.809Z,2.40
2018-06-28T09:53:23.731Z,4.12
2018-06-28T09:55:52.250Z,7.30
2018-06-28T09:58:20.736Z,2.05
2018-06-28T10:00:49.182Z,3.45
2018-06-28T10:03:17.650Z,5.22
2018-06-28T10:05:46.151Z,2.60
2018-06-28T10:08:14.857Z,2.33
2018-06-28T10:10:43.283Z,2.87
2018-06-28T10:13:11.822Z,4.70
2018-06-28T10:15:40.371Z,2.98
2018-06-28T10:18:08.960Z,6.75
2018-06-28T10:20:37.422Z,3.33
2018-06-28T10:23:05.963Z,2.17
2018-06-28T10:25:34.557Z,1.50
2018-06-28T10:28:03.084Z,2.37
2018-06-28T10:30:31.582Z,3.80
2018-06-28T10:33:00.090Z,1.70
2018-06-28T10:35:28.619Z,3.90
2018-06-28T10:37:58.164Z,1.75
2018-06-28T10:40:26.631Z,1.92
2018-06-28T10:42:55.098Z,3.02
2018-06-28T10:45:23.723Z,1.67
2018-06-28T10:47:52.211Z,5.85
2018-06-28T10:50:20.802Z,2.25
2018-06-28T10:52:49.332Z,2.22
2018-06-28T10:55:18.467Z,1.40
2018-06-28T10:57:48.294Z,1.27
2018-06-28T11:00:17.373Z,2.67
2018-06-28T11:02:45.859Z,1.32
2018-06-28T11:05:14.295Z,1.70
2018-06-28T11:07:42.781Z,2.77
2018-06-28T11:10:11.259Z,2.12
2018-06-28T11:12:43.869Z,1.57
2018-06-28T11:15:12.320Z,3.83
2018-06-28T11:17:41.006Z,1.72
2018-06-28T11:20:09.533Z,1.80
2018-06-28T11:22:38.011Z,1.80
2018-06-28T11:25:06.664Z,1.70
2018-06-28T11:27:35.122Z,1.30
2018-06-28T11:30:07.994Z,1.72
2018-06-28T11:32:36.482Z,1.45
2018-06-28T11:35:05.030Z,4.22
2018-06-28T11:37:33.582Z,1.20
2018-06-28T11:40:02.089Z,2.30
2018-06-28T11:42:30.555Z,2.45
2018-06-28T11:44:59.049Z,3.17
2018-06-28T11:47:27.455Z,1.25
2018-06-28T11:49:56.018Z,2.08
2018-06-28T11:52:24.599Z,2.05
2018-06-28T11:54:53.088Z,1.30
2018-06-28T11:57:21.541Z,1.98
2018-06-28T11:59:50.106Z,1.65
2018-06-28T12:02:18.648Z,1.98
2018-06-28T12:04:47.171Z,1.70
2018-06-28T12:07:15.627Z,2.50
2018-06-28T12:09:44.290Z,3.35
2018-06-28T12:12:12.871Z,2.67
2018-06-28T12:14:41.419Z,1.70
2018-06-28T12:17:09.875Z,2.50
2018-06-28T12:19:38.404Z,1.62
2018-06-28T12:22:07.010Z,2.70
2018-06-28T12:24:35.675Z,3.33
2018-06-28T12:27:04.404Z,1.35
2018-06-28T12:29:32.971Z,3.08
2018-06-28T12:32:01.564Z,4.62
2018-06-28T12:34:30.098Z,1.70
2018-06-28T12:36:58.551Z,2.47
2018-06-28T12:39:27.083Z,2.42
2018-06-28T12:41:55.489Z,2.05
2018-06-28T12:44:24.027Z,3.35
2018-06-28T12:48:01.390Z,1.95
2018-06-28T12:50:29.937Z,3.20
2018-06-28T12:53:02.596Z,2.90
2018-06-28T12:55:42.781Z,2.42
2018-06-28T12:58:11.323Z,2.15
2018-06-28T13:00:39.833Z,6.65
2018-06-28T13:03:08.314Z,3.95
2018-06-28T13:05:36.876Z,2.08
2018-06-28T13:08:05.480Z,3.62
2018-06-28T13:10:34.644Z,2.87
2018-06-28T13:13:03.297Z,3.30
2018-06-28T13:15:31.787Z,2.95
2018-06-28T13:18:00.318Z,3.25
2018-06-28T13:20:28.915Z,6.25
2018-06-28T13:22:57.388Z,2.30
2018-06-28T13:25:25.826Z,7.22
2018-06-28T13:27:54.356Z,7.28
2018-06-28T13:30:23.786Z,10.13
2018-06-28T13:32:52.416Z,3.37
2018-06-28T13:35:20.963Z,4.75
2018-06-28T13:37:49.543Z,3.37
2018-06-28T13:40:18.103Z,5.72
2018-06-28T13:42:46.734Z,2.22
2018-06-28T13:45:15.255Z,2.30
2018-06-28T13:47:43.824Z,3.62
2018-06-28T13:50:12.531Z,2.92
2018-06-28T13:52:41.167Z,3.45
2018-06-28T13:55:09.712Z,2.70
2018-06-28T13:57:38.562Z,1.95
2018-06-28T14:00:07.059Z,2.10
2018-06-28T14:02:35.760Z,2.20
2018-06-28T14:05:04.391Z,2.55
2018-06-28T14:07:32.938Z,2.10
2018-06-28T14:10:01.522Z,4.00
2018-06-28T14:12:30.152Z,2.08
2018-06-28T14:14:58.690Z,1.62
2018-06-28T14:17:27.315Z,2.30
2018-06-28T14:19:55.831Z,3.60
2018-06-28T14:22:24.436Z,1.62
2018-06-28T14:24:57.302Z,3.67
2018-06-28T14:27:25.795Z,1.80
2018-06-28T14:29:54.230Z,2.22
2018-06-28T14:32:22.915Z,1.70
2018-06-28T14:34:51.418Z,2.20
2018-06-28T14:37:19.990Z,1.90
2018-06-28T14:39:48.512Z,1.70
2018-06-28T14:42:17.185Z,1.90
2018-06-28T14:44:45.731Z,1.85
2018-06-28T14:47:14.314Z,2.50
2018-06-28T14:49:42.854Z,1.87
2018-06-28T14:52:11.507Z,1.70
2018-06-28T14:54:40.016Z,2.72
2018-06-28T14:57:08.633Z,3.05
2018-06-28T14:59:37.998Z,5.85
2018-06-28T15:02:06.656Z,2.12
2018-06-28T15:04:35.241Z,3.02
2018-06-28T15:07:03.791Z,2.45
2018-06-28T15:09:32.467Z,3.67
2018-06-28T15:12:00.987Z,2.47
2018-06-28T15:14:29.507Z,3.70
2018-06-28T15:16:58.076Z,2.98
2018-06-28T15:19:26.737Z,3.10
2018-06-28T15:21:55.278Z,1.60
2018-06-28T15:24:24.091Z,2.08
2018-06-28T15:26:53.894Z,1.72
2018-06-28T15:29:22.436Z,1.92
2018-06-28T15:31:50.890Z,2.22
2018-06-28T15:34:19.786Z,2.37
2018-06-28T15:36:48.406Z,2.98
2018-06-28T15:39:16.991Z,2.60
2018-06-28T15:41:45.625Z,2.12
2018-06-28T15:44:14.430Z,1.87
2018-06-28T15:46:42.942Z,1.77
2018-06-28T15:49:11.496Z,4.20
2018-06-28T15:51:40.001Z,2.87
2018-06-28T15:54:08.664Z,5.20
2018-06-28T15:56:37.259Z,3.37
2018-06-28T15:59:05.718Z,3.75
2018-06-28T16:01:34.502Z,2.15
2018-06-28T16:04:03.061Z,2.08
2018-06-28T16:06:31.689Z,3.47
2018-06-28T16:09:00.144Z,2.00
2018-06-28T16:11:28.663Z,2.47
2018-06-28T16:13:57.251Z,5.00
2018-06-28T16:16:25.739Z,2.25
2018-06-28T16:18:54.408Z,2.33
2018-06-28T16:21:23.006Z,2.30
2018-06-28T16:23:51.447Z,1.60
2018-06-28T16:26:19.994Z,1.80
2018-06-28T16:28:48.967Z,5.90
2018-06-28T16:31:17.741Z,2.47
2018-06-28T16:33:46.166Z,2.05
2018-06-28T16:36:14.705Z,3.50
2018-06-28T16:38:43.296Z,1.85
2018-06-28T16:41:11.739Z,2.67
2018-06-28T16:43:40.246Z,3.00
2018-06-28T16:46:08.776Z,2.62
2018-06-28T16:48:37.286Z,2.90
2018-06-28T16:51:06.209Z,1.90
2018-06-28T16:53:34.867Z,2.00
2018-06-28T16:56:03.562Z,1.98
2018-06-28T16:58:32.062Z,2.22
2018-06-28T17:01:00.617Z,2.72
2018-06-28T17:03:29.073Z,2.22
2018-06-28T17:05:57.660Z,1.90
2018-06-28T17:08:26.505Z,2.12
2018-06-28T17:10:55.048Z,2.52
2018-06-28T17:13:23.600Z,2.40
2018-06-28T17:15:52.098Z,2.17
2018-06-28T17:18:20.610Z,2.17
2018-06-28T17:20:49.118Z,2.10
2018-06-28T17:23:17.568Z,2.00
2018-06-28T17:25:46.804Z,2.20
2018-06-28T17:28:15.380Z,4.05
2018-06-28T17:30:43.875Z,2.25
2018-06-28T17:33:12.499Z,2.37
2018-06-28T17:35:41.088Z,2.30
2018-06-28T17:38:09.636Z,2.52
2018-06-28T17:40:38.297Z,2.30
2018-06-28T17:43:07.067Z,3.30
2018-06-28T17:45:35.714Z,3.25
2018-06-28T17:48:04.535Z,2.00
2018-06-28T17:50:33.094Z,5.92
2018-06-28T17:53:01.686Z,2.15
2018-06-28T17:55:30.379Z,2.80
2018-06-28T17:57:58.994Z,3.20
2018-06-28T18:00:27.635Z,3.90
2018-06-28T18:02:56.302Z,2.98
2018-06-28T18:05:24.983Z,3.67
2018-06-28T18:07:53.540Z,4.60
2018-06-28T18:10:22.392Z,3.37
2018-06-28T18:12:50.857Z,4.40
2018-06-28T18:15:19.425Z,5.10
2018-06-28T18:17:48.509Z,2.98
2018-06-28T18:20:17.322Z,5.05
2018-06-28T18:22:53.370Z,3.02
2018-06-28T18:25:22.320Z,2.87
2018-06-28T18:27:50.914Z,3.00
2018-06-28T18:30:19.528Z,12.63
2018-06-28T18:32:48.064Z,6.33
2018-06-28T18:35:16.530Z,6.12
2018-06-28T18:37:45.116Z,7.37
2018-06-28T18:40:13.679Z,6.17
2018-06-28T18:42:42.202Z,2.50
2018-06-28T18:45:10.711Z,2.92
2018-06-28T18:47:39.240Z,2.67
2018-06-28T18:50:07.800Z,3.05
2018-06-28T18:52:36.426Z,3.05
2018-06-28T18:55:04.979Z,6.22
2018-06-28T18:57:33.595Z,3.17
2018-06-28T19:00:02.059Z,3.37
2018-06-28T19:02:30.587Z,3.00
2018-06-28T19:04:59.236Z,2.72
2018-06-28T19:07:27.813Z,3.77
2018-06-28T19:11:05.418Z,5.42
2018-06-28T19:13:38.129Z,3.25
2018-06-28T19:16:12.375Z,2.75
2018-06-28T19:18:40.954Z,2.85
2018-06-28T19:21:14.808Z,2.80
2018-06-28T19:23:48.535Z,2.80
2018-06-28T19:26:17.668Z,2.98
2018-06-28T19:28:46.697Z,3.08
2018-06-28T19:31:20.692Z,2.70
2018-06-28T19:33:49.362Z,1.85
2018-06-28T19:36:18.303Z,2.98
2018-06-28T19:38:52.583Z,3.10
2018-06-28T19:41:26.377Z,3.35
2018-06-28T19:43:54.990Z,2.30
2018-06-28T19:46:24.981Z,3.00
2018-06-28T19:48:53.567Z,3.30
2018-06-28T19:51:27.536Z,3.55
2018-06-28T19:53:56.141Z,3.45
2018-06-28T19:56:24.932Z,2.95
2018-06-28T19:58:53.498Z,3.97
2018-06-28T20:01:27.195Z,3.00
2018-06-28T20:04:01.179Z,2.65
2018-06-28T20:06:29.638Z,3.95
2018-06-28T20:08:58.324Z,2.95
2018-06-28T20:11:27.049Z,4.05
2018-06-28T20:14:00.904Z,5.20
2018-06-28T20:16:34.813Z,4.80
2018-06-28T20:19:08.865Z,2.95
2018-06-28T20:21:37.428Z,3.00
2018-06-28T20:24:06.112Z,5.73
2018-06-28T20:26:39.871Z,4.20
2018-06-28T20:30:12.701Z,4.33
2018-06-28T20:32:46.534Z,2.80
2018-06-28T20:35:15.296Z,2.72
2018-06-28T20:37:44.222Z,2.00
2018-06-28T20:40:12.774Z,3.25
2018-06-28T20:42:41.355Z,1.90
2018-06-28T20:45:09.987Z,3.72
2018-06-28T20:47:38.464Z,2.47
2018-06-28T20:50:07.181Z,2.75
2018-06-28T20:52:35.811Z,2.80
2018-06-28T20:55:04.460Z,2.70
2018-06-28T20:57:33.246Z,4.30
2018-06-28T21:00:01.811Z,3.03
2018-06-28T21:02:30.730Z,2.60
2018-06-28T21:04:59.242Z,4.00
2018-06-28T21:07:28.023Z,5.13
2018-06-28T21:09:56.616Z,2.23
2018-06-28T21:12:25.171Z,3.02
2018-06-28T21:14:53.774Z,3.27
2018-06-28T21:17:22.383Z,2.67
2018-06-28T21:19:51.654Z,5.13
2018-06-28T21:22:20.711Z,3.47
2018-06-28T21:24:49.318Z,2.33
2018-06-28T21:27:17.838Z,5.00
2018-06-28T21:29:46.878Z,6.53
2018-06-28T21:32:15.502Z,3.10
2018-06-28T21:34:44.063Z,4.00
2018-06-28T21:37:12.560Z,3.27
2018-06-28T21:39:41.063Z,5.43
2018-06-28T21:42:09.533Z,4.43
2018-06-28T21:44:38.171Z,2.90
2018-06-28T21:47:06.765Z,2.63
2018-06-28T21:49:35.259Z,2.87
2018-06-28T21:52:03.806Z,5.67
2018-06-28T21:54:32.243Z,3.03
2018-06-28T21:57:00.750Z,3.07
2018-06-28T21:59:29.482Z,3.87
2018-06-28T22:01:58.028Z,2.80
2018-06-28T22:04:26.450Z,2.53
2018-06-28T22:06:55.089Z,3.33
2018-06-28T22:09:23.570Z,2.85
2018-06-28T22:11:52.123Z,3.27
2018-06-28T22:14:20.784Z,2.80
2018-06-28T22:16:49.200Z,3.10
2018-06-28T22:19:17.655Z,3.10
2018-06-28T22:21:46.187Z,3.40
2018-06-28T22:24:14.667Z,2.43
2018-06-28T22:26:43.214Z,2.60
2018-06-28T22:29:11.708Z,3.43
2018-06-28T22:31:40.234Z,3.37
2018-06-28T22:34:08.834Z,2.97
2018-06-28T22:36:37.293Z,2.60
2018-06-28T22:39:09.164Z,3.00
2018-06-28T22:41:37.959Z,2.80
2018-06-28T22:44:06.723Z,2.53
2018-06-28T22:46:35.548Z,2.90
2018-06-28T22:49:04.131Z,3.10
2018-06-28T22:51:32.672Z,3.25
2018-06-28T22:54:01.138Z,2.30
2018-06-28T22:56:29.642Z,2.80
2018-06-28T22:58:58.117Z,2.60
2018-06-28T23:01:26.618Z,2.77
2018-06-28T23:03:55.175Z,2.90
2018-06-28T23:06:23.731Z,5.20
2018-06-28T23:08:52.343Z,2.87
2018-06-28T23:11:20.845Z,2.50
2018-06-28T23:13:49.291Z,2.60
2018-06-28T23:16:17.870Z,2.80
2018-06-28T23:18:46.357Z,2.70
2018-06-28T23:21:14.822Z,2.90
2018-06-28T23:23:43.324Z,4.10
2018-06-28T23:26:11.767Z,2.55
2018-06-28T23:28:40.284Z,3.35
2018-06-28T23:31:08.810Z,3.20
2018-06-28T23:33:37.388Z,3.00
2018-06-28T23:36:06.019Z,2.80
2018-06-28T23:38:34.510Z,4.40
2018-06-28T23:41:03.101Z,3.20
2018-06-28T23:43:32.131Z,3.05
2018-06-28T23:46:00.550Z,2.97
2018-06-28T23:48:29.066Z,2.93
2018-06-28T23:50:57.520Z,3.33
2018-06-28T23:53:26.334Z,3.07
2018-06-28T23:55:54.783Z,2.80
2018-06-28T23:58:23.340Z,3.23
